ザウジ の空港の天気 - METARとTAF

ザウジ・パマンジ空港 ( FMCZ / DZA ) - マヨット ザウジ
飛行場実況気象(Metar)
観測時間01/19 04:00 EAT (01/19 01:00 UTC)
風向・風速西 2m/s
視程10km以上
天気現象
全天を覆う雲 雲底高度 670m
気温28℃
湿度79%
気圧1006hPa
METARFMCZ 190100Z AUTO 26004KT 220V290 9999 OVC022 28/24 Q1006 NOSIG
過去の天気等 Google飛行場航空写真 Wunderground天気予報

過去48時間のMETAR

飛行場予報(TAF)
発表時間: -

FMCZ 182300Z 1900/1924 27008KT 9999 FEW020 SCT120 BKN210